createdAt,value
2018-06-15T00:00:23.891Z,100321.96
2018-06-15T00:02:57.559Z,100323.88
2018-06-15T00:05:25.947Z,100325.15
2018-06-15T00:07:54.315Z,100329.90
2018-06-15T00:10:22.725Z,100332.42
2018-06-15T00:12:51.242Z,100335.20
2018-06-15T00:15:19.680Z,100333.48
2018-06-15T00:17:48.062Z,100331.94
2018-06-15T00:20:16.467Z,100327.32
2018-06-15T00:22:44.911Z,100331.11
2018-06-15T00:25:13.415Z,100324.44
2018-06-15T00:27:41.941Z,100320.79
2018-06-15T00:30:10.323Z,100321.31
2018-06-15T00:32:38.743Z,100325.29
2018-06-15T00:35:07.255Z,100319.91
2018-06-15T00:37:35.635Z,100309.35
2018-06-15T00:40:04.123Z,100312.33
2018-06-15T00:42:32.510Z,100309.59
2018-06-15T00:45:00.885Z,100302.19
2018-06-15T00:47:29.312Z,100303.70
2018-06-15T00:49:57.687Z,100299.52
2018-06-15T00:52:26.264Z,100299.20
2018-06-15T00:54:54.630Z,100299.55
2018-06-15T00:57:34.108Z,100294.84
2018-06-15T01:00:02.473Z,100284.84
2018-06-15T01:02:30.866Z,100285.67
2018-06-15T01:04:59.259Z,100286.21
2018-06-15T01:07:27.651Z,100291.20
2018-06-15T01:09:56.499Z,100290.08
2018-06-15T01:15:05.123Z,100286.33
2018-06-15T01:17:33.506Z,100285.08
2018-06-15T01:20:01.963Z,100282.22
2018-06-15T01:22:30.431Z,100283.55
2018-06-15T01:24:58.815Z,100288.55
2018-06-15T01:27:27.383Z,100284.99
2018-06-15T01:29:55.808Z,100286.91
2018-06-15T01:32:24.291Z,100281.64
2018-06-15T01:34:52.834Z,100285.86
2018-06-15T01:37:21.219Z,100289.16
2018-06-15T01:39:49.913Z,100288.25
2018-06-15T01:42:18.424Z,100290.73
2018-06-15T01:44:46.862Z,100284.03
2018-06-15T01:47:15.423Z,100284.55
2018-06-15T01:49:43.910Z,100282.73
2018-06-15T01:52:12.735Z,100281.73
2018-06-15T01:54:41.199Z,100280.19
2018-06-15T01:57:09.683Z,100283.73
2018-06-15T01:59:38.184Z,100280.28
2018-06-15T02:02:06.563Z,100280.89
2018-06-15T02:04:35.381Z,100285.97
2018-06-15T02:07:03.871Z,100286.91
2018-06-15T02:09:32.343Z,100284.70
2018-06-15T02:12:00.833Z,100280.83
2018-06-15T02:14:29.314Z,100287.09
2018-06-15T02:16:57.847Z,100282.51
2018-06-15T02:19:26.336Z,100289.02
2018-06-15T02:21:54.896Z,100285.58
2018-06-15T02:24:23.451Z,100276.34
2018-06-15T02:26:52.058Z,100278.28
2018-06-15T02:29:20.755Z,100279.70
2018-06-15T02:31:49.396Z,100280.94
2018-06-15T02:34:17.795Z,100280.96
2018-06-15T02:36:46.237Z,100275.59
2018-06-15T02:39:14.667Z,100278.86
2018-06-15T02:41:43.800Z,100281.63
2018-06-15T02:44:12.256Z,100273.60
2018-06-15T02:46:40.774Z,100279.06
2018-06-15T02:49:09.263Z,100275.81
2018-06-15T02:51:37.785Z,100279.55
2018-06-15T02:54:06.735Z,100284.73
2018-06-15T02:56:35.482Z,100284.73
2018-06-15T02:59:04.044Z,100283.28
2018-06-15T03:01:32.474Z,100286.14
2018-06-15T03:04:00.928Z,100286.81
2018-06-15T03:06:29.662Z,100282.83
2018-06-15T03:08:58.067Z,100284.35
2018-06-15T03:11:26.480Z,100286.56
2018-06-15T03:13:55.027Z,100282.17
2018-06-15T03:16:23.537Z,100279.58
2018-06-15T03:18:52.179Z,100278.69
2018-06-15T03:21:20.587Z,100279.10
2018-06-15T03:23:49.003Z,100281.57
2018-06-15T03:26:17.494Z,100285.86
2018-06-15T03:28:46.035Z,100288.45
2018-06-15T03:31:14.873Z,100286.34
2018-06-15T03:33:43.379Z,100287.09
2018-06-15T03:36:11.803Z,100291.22
2018-06-15T03:38:40.287Z,100288.68
2018-06-15T03:41:08.735Z,100292.19
2018-06-15T03:43:37.419Z,100285.70
2018-06-15T03:46:06.244Z,100287.13
2018-06-15T03:48:34.755Z,100293.04
2018-06-15T03:51:03.284Z,100285.78
2018-06-15T03:53:31.724Z,100292.12
2018-06-15T03:56:00.321Z,100290.33
2018-06-15T03:58:28.856Z,100292.92
2018-06-15T04:00:57.311Z,100299.83
2018-06-15T04:03:26.080Z,100305.92
2018-06-15T04:05:54.772Z,100303.55
2018-06-15T04:08:23.544Z,100308.34
2018-06-15T04:10:51.944Z,100307.89
2018-06-15T04:13:20.788Z,100301.80
2018-06-15T04:15:49.401Z,100299.34
2018-06-15T04:18:17.807Z,100303.62
2018-06-15T04:20:46.671Z,100305.25
2018-06-15T04:23:15.115Z,100304.39
2018-06-15T04:25:43.571Z,100305.43
2018-06-15T04:28:12.005Z,100316.11
2018-06-15T04:30:40.459Z,100316.36
2018-06-15T04:33:08.939Z,100318.18
2018-06-15T04:35:37.404Z,100319.19
2018-06-15T04:38:05.891Z,100320.23
2018-06-15T04:40:34.359Z,100323.69
2018-06-15T04:43:02.825Z,100321.65
2018-06-15T04:45:31.367Z,100321.19
2018-06-15T04:47:59.767Z,100315.35
2018-06-15T04:50:28.176Z,100319.74
2018-06-15T04:52:56.626Z,100318.40
2018-06-15T04:55:25.119Z,100316.03
2018-06-15T04:57:53.735Z,100323.12
2018-06-15T05:00:22.128Z,100315.17
2018-06-15T05:02:51.672Z,100321.38
2018-06-15T05:05:20.107Z,100316.90
2018-06-15T05:07:48.507Z,100315.13
2018-06-15T05:10:17.190Z,100321.02
2018-06-15T05:12:45.683Z,100320.80
2018-06-15T05:15:14.194Z,100323.03
2018-06-15T05:17:42.715Z,100317.08
2018-06-15T05:20:11.167Z,100328.84
2018-06-15T05:22:39.707Z,100324.11
2018-06-15T05:25:08.099Z,100329.72
2018-06-15T05:27:36.503Z,100335.02
2018-06-15T05:30:05.799Z,100338.91
2018-06-15T05:32:34.203Z,100337.46
2018-06-15T05:35:02.676Z,100340.05
2018-06-15T05:37:31.123Z,100332.58
2018-06-15T05:39:59.616Z,100334.94
2018-06-15T05:42:28.078Z,100343.47
2018-06-15T05:44:56.514Z,100336.66
2018-06-15T05:47:25.394Z,100346.44
2018-06-15T05:49:53.913Z,100344.80
2018-06-15T05:52:22.286Z,100347.17
2018-06-15T05:54:50.747Z,100353.07
2018-06-15T05:57:19.175Z,100356.19
2018-06-15T05:59:47.763Z,100353.27
2018-06-15T06:02:16.191Z,100356.66
2018-06-15T06:04:44.659Z,100362.11
2018-06-15T06:07:13.179Z,100360.27
2018-06-15T06:09:41.671Z,100357.91
2018-06-15T06:12:10.431Z,100364.16
2018-06-15T06:14:38.865Z,100358.50
2018-06-15T06:17:07.335Z,100363.88
2018-06-15T06:19:35.764Z,100369.81
2018-06-15T06:22:04.285Z,100373.67
2018-06-15T06:24:32.755Z,100373.59
2018-06-15T06:27:01.230Z,100367.90
2018-06-15T06:29:29.702Z,100370.14
2018-06-15T06:31:58.375Z,100377.83
2018-06-15T06:34:26.837Z,100377.23
2018-06-15T06:36:55.312Z,100372.23
2018-06-15T06:39:23.831Z,100376.28
2018-06-15T06:41:52.275Z,100384.06
2018-06-15T06:44:20.796Z,100383.98
2018-06-15T06:46:49.208Z,100381.19
2018-06-15T06:49:17.843Z,100378.50
2018-06-15T06:51:46.395Z,100376.37
2018-06-15T06:54:14.951Z,100374.70
2018-06-15T06:56:43.499Z,100375.78
2018-06-15T06:59:11.926Z,100374.20
2018-06-15T07:01:40.782Z,100374.33
2018-06-15T07:04:09.304Z,100378.06
2018-06-15T07:06:37.724Z,100382.75
2018-06-15T07:09:07.487Z,100379.30
2018-06-15T07:11:36.377Z,100382.58
2018-06-15T07:14:04.957Z,100383.20
2018-06-15T07:16:33.448Z,100382.48
2018-06-15T07:19:01.843Z,100376.05
2018-06-15T07:21:30.399Z,100385.39
2018-06-15T07:23:59.183Z,100386.85
2018-06-15T07:26:27.832Z,100388.73
2018-06-15T07:28:56.331Z,100384.56
2018-06-15T07:31:24.719Z,100380.64
2018-06-15T07:33:53.247Z,100384.91
2018-06-15T07:36:21.735Z,100385.09
2018-06-15T07:38:50.407Z,100383.12
2018-06-15T07:41:18.915Z,100379.72
2018-06-15T07:43:47.475Z,100376.88
2018-06-15T07:46:15.943Z,100377.06
2018-06-15T07:48:44.375Z,100375.59
2018-06-15T07:51:13.064Z,100377.18
2018-06-15T07:53:41.487Z,100373.67
2018-06-15T07:56:09.881Z,100381.77
2018-06-15T07:58:38.383Z,100382.39
2018-06-15T08:01:06.843Z,100382.19
2018-06-15T08:03:35.548Z,100384.53
2018-06-15T08:06:03.971Z,100389.61
2018-06-15T08:08:32.435Z,100389.42
2018-06-15T08:11:00.948Z,100388.25
2018-06-15T08:13:29.483Z,100392.13
2018-06-15T08:15:57.960Z,100386.89
2018-06-15T08:18:26.367Z,100389.39
2018-06-15T08:20:54.751Z,100389.48
2018-06-15T08:23:23.201Z,100388.09
2018-06-15T08:25:51.690Z,100384.91
2018-06-15T08:28:20.159Z,100385.80
2018-06-15T08:30:48.575Z,100379.74
2018-06-15T08:33:17.071Z,100381.84
2018-06-15T08:35:45.490Z,100381.08
2018-06-15T08:38:13.884Z,100383.42
2018-06-15T08:40:42.363Z,100383.98
2018-06-15T08:43:10.783Z,100380.32
2018-06-15T08:45:39.271Z,100377.43
2018-06-15T08:48:07.718Z,100377.70
2018-06-15T08:50:36.134Z,100380.11
2018-06-15T08:53:04.727Z,100380.00
2018-06-15T08:55:33.199Z,100384.76
2018-06-15T08:58:01.659Z,100375.80
2018-06-15T09:00:30.067Z,100369.62
2018-06-15T09:02:58.475Z,100376.94
2018-06-15T09:05:26.887Z,100376.27
2018-06-15T09:07:55.397Z,100370.95
2018-06-15T09:10:23.944Z,100370.37
2018-06-15T09:12:52.366Z,100367.97
2018-06-15T09:15:20.850Z,100365.25
2018-06-15T09:17:49.240Z,100366.84
2018-06-15T09:20:17.791Z,100365.86
2018-06-15T09:22:46.616Z,100359.77
2018-06-15T09:25:15.152Z,100366.67
2018-06-15T09:27:44.684Z,100371.81
2018-06-15T09:30:13.183Z,100371.67
2018-06-15T09:32:41.590Z,100369.00
2018-06-15T09:35:10.027Z,100371.42
2018-06-15T09:37:38.435Z,100369.58
2018-06-15T09:40:06.921Z,100373.69
2018-06-15T09:42:35.423Z,100359.02
2018-06-15T09:45:03.871Z,100365.07
2018-06-15T09:47:32.576Z,100366.66
2018-06-15T09:50:01.016Z,100363.77
2018-06-15T09:52:29.537Z,100358.16
2018-06-15T09:54:57.939Z,100363.83
2018-06-15T09:57:26.388Z,100366.11
2018-06-15T09:59:54.816Z,100365.33
2018-06-15T10:02:23.260Z,100354.58
2018-06-15T10:04:51.667Z,100362.26
2018-06-15T10:07:20.172Z,100366.81
2018-06-15T10:09:48.571Z,100365.17
2018-06-15T10:12:17.616Z,100360.28
2018-06-15T10:14:46.168Z,100369.28
2018-06-15T10:17:14.631Z,100366.78
2018-06-15T10:19:43.092Z,100370.80
2018-06-15T10:22:11.502Z,100370.52
2018-06-15T10:24:40.061Z,100371.19
2018-06-15T10:27:08.464Z,100373.56
2018-06-15T10:29:36.893Z,100369.77
2018-06-15T10:32:05.673Z,100368.99
2018-06-15T10:34:34.063Z,100373.71
2018-06-15T10:37:02.967Z,100361.52
2018-06-15T10:39:31.467Z,100359.27
2018-06-15T10:41:59.888Z,100364.84
2018-06-15T10:44:28.335Z,100368.54
2018-06-15T10:46:56.780Z,100364.58
2018-06-15T10:49:25.448Z,100363.76
2018-06-15T10:51:53.932Z,100361.59
2018-06-15T10:54:22.379Z,100362.24
2018-06-15T10:56:50.879Z,100358.80
2018-06-15T10:59:19.343Z,100362.13
2018-06-15T11:01:47.774Z,100360.86
2018-06-15T11:04:16.179Z,100357.06
2018-06-15T11:06:44.711Z,100350.38
2018-06-15T11:09:13.224Z,100349.37
2018-06-15T11:11:41.985Z,100352.13
2018-06-15T11:14:10.680Z,100354.74
2018-06-15T11:16:39.110Z,100347.02
2018-06-15T11:19:07.585Z,100351.77
2018-06-15T11:21:36.127Z,100347.09
2018-06-15T11:24:04.555Z,100340.23
2018-06-15T11:26:33.000Z,100349.95
2018-06-15T11:29:01.423Z,100340.28
2018-06-15T11:31:29.811Z,100327.56
2018-06-15T11:33:58.274Z,100331.30
2018-06-15T11:36:26.663Z,100329.59
2018-06-15T11:38:55.246Z,100325.92
2018-06-15T11:41:23.624Z,100325.78
2018-06-15T11:43:52.174Z,100328.98
2018-06-15T11:46:20.660Z,100322.70
2018-06-15T11:48:49.120Z,100326.31
2018-06-15T11:51:17.794Z,100324.16
2018-06-15T11:53:46.343Z,100331.28
2018-06-15T11:56:14.811Z,100329.03
2018-06-15T11:58:43.332Z,100338.22
2018-06-15T12:01:11.795Z,100324.59
2018-06-15T12:03:40.563Z,100330.10
2018-06-15T12:06:09.091Z,100325.42
2018-06-15T12:08:37.572Z,100327.27
2018-06-15T12:11:06.064Z,100329.92
2018-06-15T12:13:34.515Z,100331.79
2018-06-15T12:16:03.239Z,100326.66
2018-06-15T12:18:31.650Z,100325.41
2018-06-15T12:21:00.051Z,100325.17
2018-06-15T12:23:28.448Z,100325.03
2018-06-15T12:25:56.954Z,100323.75
2018-06-15T12:28:25.703Z,100326.78
2018-06-15T12:30:54.363Z,100319.84
2018-06-15T12:33:22.862Z,100320.52
2018-06-15T12:35:51.371Z,100310.39
2018-06-15T12:38:19.794Z,100323.65
2018-06-15T12:40:48.487Z,100314.50
2018-06-15T12:43:16.998Z,100322.37
2018-06-15T12:45:45.443Z,100320.16
2018-06-15T12:48:13.818Z,100313.22
2018-06-15T12:50:42.218Z,100315.91
2018-06-15T12:53:10.664Z,100322.96
2018-06-15T12:55:39.088Z,100315.14
2018-06-15T12:58:07.504Z,100315.57
2018-06-15T13:00:36.012Z,100314.41
2018-06-15T13:03:04.480Z,100312.59
2018-06-15T13:05:33.008Z,100311.81
2018-06-15T13:08:01.483Z,100312.70
2018-06-15T13:10:29.907Z,100313.91
2018-06-15T13:12:58.375Z,100309.31
2018-06-15T13:15:26.799Z,100310.84
2018-06-15T13:17:55.791Z,100309.17
2018-06-15T13:20:24.314Z,100307.17
2018-06-15T13:22:52.787Z,100315.53
2018-06-15T13:25:21.212Z,100304.58
2018-06-15T13:27:49.796Z,100310.06
2018-06-15T13:30:18.304Z,100303.11
2018-06-15T13:32:46.805Z,100300.23
2018-06-15T13:35:15.167Z,100299.54
2018-06-15T13:37:43.699Z,100300.02
2018-06-15T13:40:12.200Z,100296.41
2018-06-15T13:42:40.729Z,100300.06
2018-06-15T13:45:09.136Z,100305.75
2018-06-15T13:47:37.679Z,100301.86
2018-06-15T13:50:06.294Z,100300.56
2018-06-15T13:52:34.757Z,100308.27
2018-06-15T13:55:03.495Z,100301.96
2018-06-15T13:57:31.947Z,100299.03
2018-06-15T14:00:00.431Z,100301.75
2018-06-15T14:02:29.075Z,100303.12
2018-06-15T14:04:57.546Z,100302.84
2018-06-15T14:07:26.075Z,100304.16
2018-06-15T14:09:54.451Z,100302.33
2018-06-15T14:12:22.999Z,100299.78
2018-06-15T14:14:51.491Z,100301.95
2018-06-15T14:17:19.971Z,100300.09
2018-06-15T14:19:48.875Z,100294.59
2018-06-15T14:22:17.392Z,100289.00
2018-06-15T14:24:46.106Z,100289.95
2018-06-15T14:27:14.536Z,100288.86
2018-06-15T14:29:42.951Z,100285.38
2018-06-15T14:32:11.456Z,100277.81
2018-06-15T14:34:39.873Z,100277.58
2018-06-15T14:37:08.260Z,100276.28
2018-06-15T14:39:36.735Z,100278.55
2018-06-15T14:42:05.222Z,100272.52
2018-06-15T14:44:33.659Z,100268.23
2018-06-15T14:47:02.118Z,100270.52
2018-06-15T14:49:30.549Z,100272.20
2018-06-15T14:51:58.963Z,100272.73
2018-06-15T14:54:27.392Z,100266.30
2018-06-15T14:56:56.065Z,100264.61
2018-06-15T14:59:24.435Z,100265.22
2018-06-15T15:01:52.851Z,100267.11
2018-06-15T15:04:21.475Z,100263.78
2018-06-15T15:06:49.936Z,100259.05
2018-06-15T15:09:18.387Z,100262.53
2018-06-15T15:11:46.823Z,100261.94
2018-06-15T15:14:15.239Z,100264.66
2018-06-15T15:16:43.753Z,100264.31
2018-06-15T15:19:12.246Z,100257.39
2018-06-15T15:21:40.883Z,100262.52
2018-06-15T15:24:09.400Z,100260.80
2018-06-15T15:26:37.812Z,100260.81
2018-06-15T15:29:06.356Z,100262.77
2018-06-15T15:31:34.779Z,100261.74
2018-06-15T15:34:03.219Z,100259.45
2018-06-15T15:36:31.700Z,100256.44
2018-06-15T15:39:00.156Z,100263.72
2018-06-15T15:41:28.585Z,100254.58
2018-06-15T15:43:57.039Z,100254.93
2018-06-15T15:46:25.819Z,100250.41
2018-06-15T15:48:54.427Z,100251.00
2018-06-15T15:51:22.934Z,100249.73
2018-06-15T15:53:51.475Z,100241.66
2018-06-15T15:56:19.940Z,100253.42
2018-06-15T15:58:48.602Z,100252.34
2018-06-15T16:01:17.023Z,100248.78
2018-06-15T16:03:45.506Z,100251.52
2018-06-15T16:06:13.935Z,100252.06
2018-06-15T16:08:42.407Z,100246.27
2018-06-15T16:11:10.903Z,100254.43
2018-06-15T16:13:39.395Z,100252.78
2018-06-15T16:16:08.545Z,100251.92
2018-06-15T16:18:36.947Z,100252.78
2018-06-15T16:21:05.375Z,100249.31
2018-06-15T16:23:34.363Z,100254.52
2018-06-15T16:26:02.811Z,100252.87
2018-06-15T16:28:31.421Z,100255.08
2018-06-15T16:31:00.007Z,100251.92
2018-06-15T16:33:28.472Z,100257.58
2018-06-15T16:35:57.448Z,100256.86
2018-06-15T16:38:26.007Z,100255.58
2018-06-15T16:40:54.402Z,100256.06
2018-06-15T16:43:22.995Z,100256.38
2018-06-15T16:45:51.419Z,100254.58
2018-06-15T16:48:19.872Z,100256.08
2018-06-15T16:50:48.272Z,100254.07
2018-06-15T16:53:17.011Z,100255.13
2018-06-15T16:55:45.447Z,100255.96
2018-06-15T16:58:13.995Z,100260.05
2018-06-15T17:00:42.441Z,100257.46
2018-06-15T17:03:10.961Z,100250.83
2018-06-15T17:05:39.411Z,100252.55
2018-06-15T17:08:07.938Z,100252.36
2018-06-15T17:10:36.384Z,100245.56
2018-06-15T17:13:04.927Z,100245.51
2018-06-15T17:15:33.335Z,100247.68
2018-06-15T17:18:01.801Z,100245.42
2018-06-15T17:20:30.287Z,100245.92
2018-06-15T17:22:58.766Z,100243.11
2018-06-15T17:25:27.399Z,100247.68
2018-06-15T17:27:55.888Z,100251.78
2018-06-15T17:30:24.311Z,100244.79
2018-06-15T17:32:52.727Z,100252.48
2018-06-15T17:35:21.223Z,100245.52
2018-06-15T17:37:49.839Z,100242.55
2018-06-15T17:40:18.461Z,100241.69
2018-06-15T17:42:46.852Z,100244.41
2018-06-15T17:45:15.331Z,100247.14
2018-06-15T17:47:43.829Z,100240.83
2018-06-15T17:50:12.475Z,100245.69
2018-06-15T17:52:40.983Z,100249.40
2018-06-15T17:55:09.523Z,100246.83
2018-06-15T17:57:38.043Z,100250.77
2018-06-15T18:00:06.942Z,100247.63
2018-06-15T18:02:35.875Z,100249.36
2018-06-15T18:05:04.400Z,100245.78
2018-06-15T18:07:32.899Z,100250.98
2018-06-15T18:10:01.389Z,100249.27
2018-06-15T18:12:29.899Z,100250.06
2018-06-15T18:14:58.738Z,100254.33
2018-06-15T18:17:27.622Z,100245.47
2018-06-15T18:19:56.075Z,100247.73
2018-06-15T18:22:24.480Z,100245.86
2018-06-15T18:24:52.967Z,100244.43
2018-06-15T18:27:21.927Z,100249.86
2018-06-15T18:29:50.387Z,100248.36
2018-06-15T18:32:18.859Z,100250.54
2018-06-15T18:34:47.351Z,100252.28
2018-06-15T18:37:15.843Z,100252.70
2018-06-15T18:39:44.504Z,100256.95
2018-06-15T18:42:12.931Z,100256.83
2018-06-15T18:44:41.431Z,100252.75
2018-06-15T18:47:15.711Z,100253.97
2018-06-15T18:49:44.152Z,100254.16
2018-06-15T18:52:12.676Z,100258.95
2018-06-15T18:54:41.178Z,100252.25
2018-06-15T18:57:09.611Z,100254.96
2018-06-15T18:59:38.031Z,100253.41
2018-06-15T19:02:06.463Z,100253.31
2018-06-15T19:04:34.895Z,100256.91
2018-06-15T19:07:03.426Z,100256.25
2018-06-15T19:09:31.883Z,100256.69
2018-06-15T19:12:00.515Z,100254.84
2018-06-15T19:14:29.059Z,100254.25
2018-06-15T19:16:57.499Z,100256.94
2018-06-15T19:19:25.967Z,100261.39
2018-06-15T19:21:54.507Z,100256.33
2018-06-15T19:24:22.984Z,100260.02
2018-06-15T19:26:51.461Z,100255.91
2018-06-15T19:29:19.883Z,100261.50
2018-06-15T19:31:48.264Z,100262.02
2018-06-15T19:34:16.727Z,100259.20
2018-06-15T19:36:45.158Z,100261.77
2018-06-15T19:39:13.548Z,100258.26
2018-06-15T19:41:42.032Z,100265.88
2018-06-15T19:44:10.544Z,100267.34
2018-06-15T19:46:39.095Z,100272.52
2018-06-15T19:49:07.588Z,100268.03
2018-06-15T19:51:36.251Z,100270.45
2018-06-15T19:54:05.356Z,100268.44
2018-06-15T19:56:33.757Z,100273.46
2018-06-15T19:59:02.289Z,100272.00
2018-06-15T20:01:30.688Z,100271.26
2018-06-15T20:03:59.196Z,100274.36
2018-06-15T20:06:27.947Z,100271.48
2018-06-15T20:08:56.366Z,100270.93
2018-06-15T20:11:24.745Z,100263.87
2018-06-15T20:13:53.284Z,100263.82
2018-06-15T20:16:21.699Z,100268.79
2018-06-15T20:18:50.430Z,100273.59
2018-06-15T20:21:18.923Z,100269.48
2018-06-15T20:23:47.436Z,100277.13
2018-06-15T20:26:15.952Z,100275.53
2018-06-15T20:28:44.347Z,100275.95
2018-06-15T20:31:12.788Z,100277.42
2018-06-15T20:33:41.231Z,100279.00
2018-06-15T20:36:09.774Z,100279.52
2018-06-15T20:38:38.210Z,100280.39
2018-06-15T20:41:06.987Z,100282.22
2018-06-15T20:43:35.527Z,100281.70
2018-06-15T20:46:04.040Z,100283.58
2018-06-15T20:48:32.452Z,100281.09
2018-06-15T20:51:00.991Z,100276.70
2018-06-15T20:53:29.507Z,100273.73
2018-06-15T20:55:58.139Z,100270.30
2018-06-15T20:58:26.834Z,100276.27
2018-06-15T21:00:55.395Z,100273.05
2018-06-15T21:03:23.843Z,100271.80
2018-06-15T21:05:52.327Z,100268.52
2018-06-15T21:08:20.884Z,100264.42
2018-06-15T21:10:49.351Z,100261.23
2018-06-15T21:13:17.803Z,100257.98
2018-06-15T21:15:46.199Z,100265.70
2018-06-15T21:18:14.732Z,100255.36
2018-06-15T21:20:43.262Z,100259.66
2018-06-15T21:23:11.688Z,100255.56
2018-06-15T21:25:40.200Z,100257.05
2018-06-15T21:28:08.627Z,100258.33
2018-06-15T21:30:37.111Z,100256.22
2018-06-15T21:33:05.647Z,100252.28
2018-06-15T21:35:34.207Z,100257.28
2018-06-15T21:38:02.668Z,100260.67
2018-06-15T21:40:31.143Z,100253.83
2018-06-15T21:42:59.653Z,100263.68
2018-06-15T21:45:28.308Z,100261.50
2018-06-15T21:47:56.723Z,100254.22
2018-06-15T21:50:25.241Z,100256.39
2018-06-15T21:52:53.731Z,100259.41
2018-06-15T21:55:22.222Z,100259.55
2018-06-15T21:57:50.863Z,100261.55
2018-06-15T22:00:19.299Z,100258.60
2018-06-15T22:02:47.788Z,100258.00
2018-06-15T22:05:16.315Z,100264.23
2018-06-15T22:07:44.792Z,100266.45
2018-06-15T22:10:13.555Z,100261.31
2018-06-15T22:12:42.023Z,100249.20
2018-06-15T22:15:10.459Z,100249.91
2018-06-15T22:17:39.035Z,100255.83
2018-06-15T22:20:07.559Z,100255.73
2018-06-15T22:22:36.236Z,100255.84
2018-06-15T22:25:04.687Z,100255.51
2018-06-15T22:27:33.135Z,100254.77
2018-06-15T22:30:01.562Z,100255.67
2018-06-15T22:32:30.039Z,100262.66
2018-06-15T22:34:58.867Z,100261.63
2018-06-15T22:37:27.249Z,100265.20
2018-06-15T22:39:55.706Z,100264.98
2018-06-15T22:42:24.411Z,100264.03
2018-06-15T22:44:52.890Z,100273.35
2018-06-15T22:47:21.335Z,100275.99
2018-06-15T22:49:49.787Z,100261.56
2018-06-15T22:52:18.306Z,100269.55
2018-06-15T22:54:46.804Z,100266.45
2018-06-15T22:57:15.260Z,100269.84
2018-06-15T22:59:43.970Z,100271.55
2018-06-15T23:02:12.480Z,100268.95
2018-06-15T23:04:40.996Z,100273.23
2018-06-15T23:07:09.475Z,100269.02
2018-06-15T23:09:37.947Z,100265.58
2018-06-15T23:12:06.416Z,100265.41
2018-06-15T23:14:34.865Z,100265.19
2018-06-15T23:17:03.327Z,100267.73
2018-06-15T23:19:31.863Z,100271.05
2018-06-15T23:22:00.317Z,100269.97
2018-06-15T23:24:29.607Z,100267.17
2018-06-15T23:26:58.008Z,100275.25
2018-06-15T23:29:26.516Z,100275.05
2018-06-15T23:31:55.039Z,100282.09
2018-06-15T23:34:23.463Z,100279.10
2018-06-15T23:36:52.003Z,100283.52
2018-06-15T23:39:20.514Z,100275.08
2018-06-15T23:41:49.159Z,100281.28
2018-06-15T23:44:17.551Z,100281.96
2018-06-15T23:46:46.087Z,100283.88
2018-06-15T23:49:14.575Z,100281.28
2018-06-15T23:51:43.055Z,100278.98
2018-06-15T23:54:11.871Z,100282.75
2018-06-15T23:56:40.354Z,100288.59
2018-06-15T23:59:08.873Z,100276.03
